Flight Track Log - Related Links

Times and Time Zones

All times are in EST time to prevent confusion due to time zone crossing. See the SWA3450 flight status page for this flight to view local times or setup timezone preferences in your user account.

Time Position Orientation Groundspeed Altitude Reporting Facility
EST Latitude Longitude Course Direction KTS MPH feet Rate Location/Type
Sat 08:47:53 PM 41.8167 -87.7667 90° East 172 198 2,500  Level Chicago TRACON
Sat 08:48:53 PM 41.8167 -87.6833 90° East 234 269 3,700 1,942 Climbing Chicago TRACON
Sat 08:50:12 PM 41.8086 -87.5747 96° East 249 287 7,000 3,043 Climbing Chicago Center
Sat 08:51:13 PM 41.7992 -87.4631 96° East 286 329 10,800 3,295 Climbing Chicago Center
Sat 08:52:14 PM 41.7872 -87.3433 98° East 314 361 13,700 2,902 Climbing Chicago Center
Sat 08:53:00 PM 41.6922 -86.8103 90° East  Level Estimated
Sat 08:53:15 PM 41.7733 -87.1794 96° East 365 420 16,700  Level Chicago Center
Sat 08:54:16 PM 41.7614 -87.0281 96° East 403 464 18,500 2,066 Climbing Chicago Center
Sat 08:55:17 PM 41.7642 -86.8636 89° East 436 502 20,900 2,410 Climbing Chicago Center
Sat 08:56:18 PM 41.7633 -86.6958 90° East 447 514 23,400 2,182 Climbing Chicago Center
Sat 08:57:18 PM 41.7639 -86.5500 90° East 456 525 25,300 1,934 Climbing Chicago Center
Sat 08:58:19 PM 41.7661 -86.3389 89° East 470 541 27,300 1,770 Climbing Chicago Center
Sat 08:59:20 PM 41.7686 -86.1575 89° East 482 555 28,900 1,574 Climbing Chicago Center
Sat 09:00:21 PM 41.7728 -85.9728 88° East 493 567 30,500 1,721 Climbing Chicago Center
Sat 09:01:22 PM 41.7744 -85.7856 89° East 499 574 32,400 1,623 Climbing Chicago Center
Sat 09:02:23 PM 41.7753 -85.5972 90° East 500 575 33,800 1,426 Climbing Chicago Center
Sat 09:03:24 PM 41.7758 -85.4050 90° East 503 579 35,300 1,388 Climbing Chicago Center
Sat 09:04:24 PM 41.7769 -85.2153 89° East 500 575 36,600 1,190 Climbing Chicago Center
Sat 09:05:25 PM 41.7789 -85.0269 89° East 501 577 37,700 934 Climbing Chicago Center
Sat 09:06:26 PM 41.7786 -84.8372 90° East 510 587 38,500 639 Climbing Chicago Center
Sat 09:07:27 PM 41.7783 -84.6458 90° East 513 590 39,000 268 Climbing Chicago Center
Sat 09:08:18 PM 41.7781 -84.4944 90° East 510 587 39,000  Level Cleveland Center
Sat 09:09:19 PM 41.7778 -84.3061 90° East 508 585 39,000  Level Cleveland Center
Sat 09:10:20 PM 41.7761 -84.1214 91° East 510 587 39,000  Level Cleveland Center
Sat 09:11:21 PM 41.7753 -83.9331 90° East 512 589 39,000  Level Cleveland Center
Sat 09:12:21 PM 41.7397 -83.7181 102° East 500 575 39,000  Level Cleveland Center
Sat 09:13:22 PM 41.6986 -83.5422 107° East 501 577 39,000  Level Cleveland Center
Sat 09:14:23 PM 41.6558 -83.3664 108° East 502 578 39,000  Level Cleveland Center
Sat 09:15:24 PM 41.6125 -83.1917 108° East 501 577 39,000  Level Cleveland Center
Sat 09:16:25 PM 41.5717 -83.0275 108° East 500 575 39,000  Level Cleveland Center
Sat 09:17:25 PM 41.5269 -82.8531 109° East 497 572 39,000  Level Cleveland Center
Sat 09:18:26 PM 41.4828 -82.6781 109° East 495 570 39,000  Level Cleveland Center
Sat 09:19:27 PM 41.4386 -82.5022 108° East 497 572 39,000  Level Cleveland Center
Sat 09:20:28 PM 41.3942 -82.3283 109° East 496 571 39,000  Level Cleveland Center
Sat 09:21:28 PM 41.3411 -82.1244 109° East 499 574 39,000  Level Cleveland Center
Sat 09:22:29 PM 41.3019 -81.9764 109° East 500 575 39,000  Level Cleveland Center
Sat 09:23:30 PM 41.2572 -81.8014 109° East 500 575 39,000  Level Cleveland Center
Sat 09:24:31 PM 41.2100 -81.6289 110° East 499 574 39,000  Level Cleveland Center
Sat 09:25:31 PM 41.1639 -81.4544 109° East 501 577 39,000  Level Cleveland Center
Sat 09:26:32 PM 41.1125 -81.2617 109° East 499 574 39,000  Level Cleveland Center
Sat 09:27:33 PM 41.0658 -81.0881 110° East 498 573 39,000  Level Cleveland Center
Sat 09:28:34 PM 41.0125 -80.9011 111° Southeast 501 577 39,000  Level Cleveland Center
Sat 09:29:35 PM 40.9656 -80.7292 110° East 499 574 39,000  Level Cleveland Center
Sat 09:30:35 PM 40.9189 -80.5561 110° East 497 572 39,000  Level Cleveland Center
Sat 09:31:36 PM 40.8717 -80.3806 110° East 503 579 39,000  Level Cleveland Center
Sat 09:32:37 PM 40.8244 -80.2144 111° Southeast 501 577 39,000  Level Cleveland Center
Sat 09:33:38 PM 40.7672 -80.0517 115° Southeast 493 567 39,000  Level Cleveland Center
Sat 09:34:39 PM 40.7025 -79.8792 116° Southeast 494 568 39,000  Level Cleveland Center
Sat 09:35:39 PM 40.6433 -79.7153 115° Southeast 492 566 39,000  Level Cleveland Center
Sat 09:36:40 PM 40.5869 -79.5503 114° Southeast 492 566 39,000  Level Cleveland Center
Sat 09:37:41 PM 40.5597 -79.3625 101° East 521 600 39,000  Level Cleveland Center
Sat 09:38:42 PM 40.5361 -79.1581 99° East 525 604 39,000  Level Cleveland Center
Sat 09:39:43 PM 40.5142 -78.9694 99° East 527 606 39,000  Level Cleveland Center
Sat 09:40:43 PM 40.4928 -78.7822 98° East 526 605 39,000  Level Cleveland Center
Sat 09:41:44 PM 40.4694 -78.5956 99° East 525 604 39,000  Level Cleveland Center
Sat 09:42:45 PM 40.4456 -78.4072 99° East 527 606 39,000  Level Cleveland Center
Sat 09:43:46 PM 40.4225 -78.2197 99° East 526 605 39,000  Level Cleveland Center
Sat 09:44:47 PM 40.3989 -78.0306 99° East 530 610 39,000 -694 Level New York Center
Sat 09:45:47 PM 40.3747 -77.8408 99° East 533 613 37,600 -2,083 Descending New York Center
Sat 09:46:48 PM 40.3489 -77.6558 100° East 521 600 34,800 -3,295 Descending New York Center
Sat 09:47:49 PM 40.3183 -77.4192 100° East 546 628 30,900 -3,295 Descending New York Center
Sat 09:48:50 PM 40.2950 -77.2506 100° East 546 628 28,100 -2,754 Descending New York Center
Sat 09:49:51 PM 40.2700 -77.0606 100° East 530 610 25,300 -2,826 Descending New York Center
Sat 09:50:51 PM 40.2408 -76.8542 100° East 510 587 22,400 -2,579 Descending New York Center
Sat 09:51:52 PM 40.2158 -76.6797 101° East 491 565 20,100 -1,918 Descending New York Center
Sat 09:52:53 PM 40.1944 -76.5144 100° East 447 514 18,500 -1,820 Descending New York Center
Sat 09:53:54 PM 40.1719 -76.3656 101° East 401 461 16,400 -2,410 Descending New York Center
Sat 09:54:55 PM 40.1508 -76.2222 101° East 388 447 13,600 -2,380 Descending New York Center
Sat 09:55:55 PM 40.1328 -76.0939 100° East 376 433 11,600 -1,587 Descending New York Center
Sat 09:56:56 PM 40.1144 -75.9758 101° East 313 360 10,400 -1,328 Descending New York Center
Sat 09:57:57 PM 40.0989 -75.8669 101° East 301 346 8,900 -1,426 Descending New York Center
Sat 09:58:58 PM 40.0572 -75.7875 124° Southeast 262 302 7,500 -1,279 Descending New York Center
Sat 09:59:59 PM 40.0139 -75.7147 128° Southeast 251 289 6,300 -1,131 Descending New York Center
Sat 10:01:00 PM 39.9742 -75.6567 132° Southeast 215 247 5,200 -992 Descending New York Center
Sat 10:02:00 PM 39.9286 -75.6094 142° Southeast 194 223 4,300 -843 Descending New York Center
Sat 10:03:01 PM 39.8878 -75.5722 145° Southeast 181 208 3,500 -621 Descending New York Center
Sat 10:03:56 PM 39.8500 -75.5500 156° South 176 203 3,100 -574 Descending Philadelphia TRACON
Sat 10:04:56 PM 39.8333 -75.5000 113° Southeast 155 178 2,400 -476 Descending Philadelphia TRACON
Sat 10:06:02 PM 39.8333 -75.4333 90° East 142 163 2,100 -190 Descending Philadelphia TRACON
Sat 10:07:02 PM 39.8333 -75.3833 90° East 137 158 2,000 -400 Descending Philadelphia TRACON
Sat 10:08:02 PM 39.8500 -75.3500 57° Northeast 105 121 1,300 -650 Descending Philadelphia TRACON
Sat 10:09:02 PM 39.8500 -75.3167 90° East 113 130 700 -600 Descending Philadelphia TRACON

Login

Don't have an account? Register now (free) for customized features, flight alerts, and more!